createdAt,value
2023-01-12T00:00:25.056Z,12.7
2023-01-12T00:01:32.099Z,11.2
2023-01-12T00:02:42.392Z,13.9
2023-01-12T00:03:49.391Z,13.3
2023-01-12T00:04:56.479Z,11.6
2023-01-12T00:06:03.647Z,12.4
2023-01-12T00:07:10.742Z,13.4
2023-01-12T00:08:17.876Z,12.8
2023-01-12T00:09:25.080Z,13.1
2023-01-12T00:10:32.129Z,13.6
2023-01-12T00:11:39.272Z,11.2
2023-01-12T00:12:46.433Z,15.2
2023-01-12T00:13:53.530Z,12.7
2023-01-12T00:15:00.248Z,14.8
2023-01-12T00:16:07.364Z,11.2
2023-01-12T00:17:19.522Z,12.8
2023-01-12T00:18:26.589Z,13.2
2023-01-12T00:19:33.691Z,13.2
2023-01-12T00:20:40.824Z,12.1
2023-01-12T00:21:50.512Z,11.7
2023-01-12T00:23:00.169Z,10.9
2023-01-12T00:24:07.362Z,11.7
2023-01-12T00:25:14.396Z,12
2023-01-12T00:26:21.581Z,11.5
2023-01-12T00:27:28.213Z,12.3
2023-01-12T00:28:35.327Z,11.7
2023-01-12T00:29:42.418Z,11
2023-01-12T00:30:49.586Z,11.3
2023-01-12T00:31:56.236Z,10.2
2023-01-12T00:33:03.358Z,10.8
2023-01-12T00:34:10.441Z,10.6
2023-01-12T00:35:17.578Z,10.1
2023-01-12T00:36:24.667Z,11
2023-01-12T00:37:31.304Z,10.6
2023-01-12T00:38:38.471Z,10.3
2023-01-12T00:39:56.708Z,16.1
2023-01-12T00:40:52.746Z,10.5
2023-01-12T00:41:59.843Z,11.6
2023-01-12T00:43:12.085Z,9.4
2023-01-12T00:44:24.259Z,10
2023-01-12T00:45:36.566Z,10.7
2023-01-12T00:46:43.602Z,10.6
2023-01-12T00:47:50.745Z,11
2023-01-12T00:48:57.375Z,10.1
2023-01-12T00:50:04.059Z,9.1
2023-01-12T00:51:11.232Z,12.3
2023-01-12T00:52:29.235Z,10.5
2023-01-12T00:53:25.345Z,13
2023-01-12T00:54:32.035Z,12.9
2023-01-12T00:55:39.129Z,18.8
2023-01-12T00:56:46.229Z,16.4
2023-01-12T00:57:53.610Z,15
2023-01-12T00:59:00.548Z,11
2023-01-12T01:00:07.625Z,11.9
2023-01-12T01:01:14.861Z,11.9
2023-01-12T01:02:21.834Z,13.2
2023-01-12T01:03:28.962Z,13.3
2023-01-12T01:04:36.182Z,12.4
2023-01-12T01:05:43.226Z,11.3
2023-01-12T01:06:50.345Z,9.9
2023-01-12T01:07:57.465Z,13.1
2023-01-12T01:09:04.592Z,10.4
2023-01-12T01:10:11.949Z,11.5
2023-01-12T01:11:18.829Z,10.4
2023-01-12T01:12:25.905Z,14.1
2023-01-12T01:13:33.140Z,13.2
2023-01-12T01:14:40.169Z,12.7
2023-01-12T01:15:47.401Z,12.8
2023-01-12T01:16:54.050Z,12
2023-01-12T01:18:01.132Z,12.1
2023-01-12T01:19:08.220Z,11.2
2023-01-12T01:20:15.334Z,12.3
2023-01-12T01:21:22.407Z,14.3
2023-01-12T01:22:29.087Z,12.4
2023-01-12T01:23:36.477Z,13.2
2023-01-12T01:24:43.293Z,12.2
2023-01-12T01:25:50.424Z,11.7
2023-01-12T01:26:57.197Z,11.2
2023-01-12T01:28:04.314Z,11.7
2023-01-12T01:29:11.486Z,12
2023-01-12T01:30:18.481Z,11.3
2023-01-12T01:31:25.784Z,11.4
2023-01-12T01:32:32.807Z,11.7
2023-01-12T01:33:39.880Z,10
2023-01-12T01:34:47.010Z,11.5
2023-01-12T01:35:53.776Z,10.8
2023-01-12T01:37:00.851Z,10.2
2023-01-12T01:38:07.911Z,11.3
2023-01-12T01:39:15.088Z,9.5
2023-01-12T01:40:22.144Z,9.9
2023-01-12T01:41:28.762Z,10.7
2023-01-12T01:42:35.946Z,10.3
2023-01-12T01:43:43.056Z,10.2
2023-01-12T01:44:53.191Z,10.1
2023-01-12T01:46:00.399Z,10.3
2023-01-12T01:47:07.491Z,10.4
2023-01-12T01:48:14.596Z,9.1
2023-01-12T01:49:21.731Z,12.4
2023-01-12T01:50:33.964Z,9.6
2023-01-12T01:51:40.713Z,10.4
2023-01-12T01:52:47.743Z,9.9
2023-01-12T01:54:01.087Z,9.9
2023-01-12T01:55:08.217Z,10.4
2023-01-12T01:56:21.333Z,9.4
2023-01-12T01:57:28.454Z,9.5
2023-01-12T01:58:38.159Z,9.4
2023-01-12T01:59:47.912Z,9.3
2023-01-12T02:00:54.947Z,9.5
2023-01-12T02:02:02.222Z,8.8
2023-01-12T02:03:08.828Z,10.2
2023-01-12T02:04:15.885Z,10.7
2023-01-12T02:05:22.991Z,9.4
2023-01-12T02:06:30.210Z,9
2023-01-12T02:07:37.191Z,10.1
2023-01-12T02:08:43.808Z,8.7
2023-01-12T02:09:50.584Z,8.7
2023-01-12T02:10:57.557Z,8.4
2023-01-12T02:12:04.764Z,8.6
2023-01-12T02:13:17.028Z,10.2
2023-01-12T02:14:29.109Z,8.3
2023-01-12T02:15:40.898Z,9
2023-01-12T02:16:55.631Z,10.4
2023-01-12T02:18:07.921Z,9.1
2023-01-12T02:19:20.022Z,9
2023-01-12T02:20:27.179Z,13.1
2023-01-12T02:21:44.525Z,11.5
2023-01-12T02:22:59.297Z,11.4
2023-01-12T02:24:14.101Z,11.7
2023-01-12T02:25:31.439Z,10
2023-01-12T02:26:40.899Z,10.7
2023-01-12T02:27:55.654Z,10.8
2023-01-12T02:29:07.943Z,9.5
2023-01-12T02:30:20.090Z,10.3
2023-01-12T02:31:32.416Z,9.6
2023-01-12T02:32:49.555Z,11.4
2023-01-12T02:34:01.910Z,11.5
2023-01-12T02:35:19.066Z,10.4
2023-01-12T02:36:31.303Z,10.6
2023-01-12T02:37:48.328Z,10.8
2023-01-12T02:39:03.373Z,9.6
2023-01-12T02:40:18.114Z,10
2023-01-12T02:41:32.961Z,11
2023-01-12T02:42:50.225Z,11.1
2023-01-12T02:44:02.516Z,12.2
2023-01-12T02:45:09.545Z,11.6
2023-01-12T02:46:21.820Z,11.5
2023-01-12T02:47:28.873Z,12
2023-01-12T02:48:41.474Z,10.9
2023-01-12T02:49:59.073Z,12.2
2023-01-12T02:51:06.000Z,13.2
2023-01-12T02:52:18.224Z,12.2
2023-01-12T02:53:25.299Z,11.5
2023-01-12T02:54:37.577Z,12.2
2023-01-12T02:55:44.153Z,11.2
2023-01-12T02:56:50.889Z,9.5
2023-01-12T02:57:57.963Z,10.3
2023-01-12T02:59:05.090Z,10.5
2023-01-12T03:00:12.197Z,9.7
2023-01-12T03:01:19.857Z,9.1
2023-01-12T03:02:26.820Z,10.3
2023-01-12T03:03:33.453Z,9.2
2023-01-12T03:04:40.703Z,8.8
2023-01-12T03:05:47.792Z,9.7
2023-01-12T03:06:54.379Z,9.7
2023-01-12T03:08:01.161Z,11.3
2023-01-12T03:09:08.272Z,11
2023-01-12T03:10:15.373Z,9.6
2023-01-12T03:11:32.529Z,9.7
2023-01-12T03:12:39.619Z,9
2023-01-12T03:13:46.675Z,10.8
2023-01-12T03:14:53.463Z,10.6
2023-01-12T03:16:00.554Z,10.5
2023-01-12T03:17:07.520Z,10.3
2023-01-12T03:18:14.768Z,9.4
2023-01-12T03:19:21.863Z,9.9
2023-01-12T03:20:28.810Z,10.2
2023-01-12T03:21:38.473Z,10.7
2023-01-12T03:22:45.335Z,9.4
2023-01-12T03:23:52.407Z,10.2
2023-01-12T03:25:02.187Z,10.1
2023-01-12T03:26:09.256Z,11
2023-01-12T03:27:16.442Z,9.8
2023-01-12T03:28:23.471Z,9.7
2023-01-12T03:29:30.767Z,11.2
2023-01-12T03:30:37.740Z,9.2
2023-01-12T03:31:44.895Z,10.3
2023-01-12T03:32:52.062Z,9.8
2023-01-12T03:33:59.119Z,9.5
2023-01-12T03:35:06.195Z,11.8
2023-01-12T03:36:13.168Z,12.1
2023-01-12T03:37:25.054Z,10.6
2023-01-12T03:38:34.743Z,10
2023-01-12T03:39:42.150Z,10.1
2023-01-12T03:40:57.115Z,9.3
2023-01-12T03:42:06.808Z,10
2023-01-12T03:43:16.482Z,9.5
2023-01-12T03:44:33.742Z,8.2
2023-01-12T03:45:48.445Z,10.4
2023-01-12T03:46:58.212Z,11.3
2023-01-12T03:48:05.273Z,10.1
2023-01-12T03:49:17.531Z,9.6
2023-01-12T03:50:29.665Z,10.7
2023-01-12T03:51:41.944Z,10.4
2023-01-12T03:52:49.078Z,9.6
2023-01-12T03:53:56.267Z,9.1
2023-01-12T03:55:03.311Z,10.3
2023-01-12T03:56:10.617Z,9.8
2023-01-12T03:57:17.626Z,10.1
2023-01-12T03:58:24.690Z,7.8
2023-01-12T03:59:31.763Z,9.7
2023-01-12T04:00:38.539Z,10.2
2023-01-12T04:01:45.825Z,9.7
2023-01-12T04:02:52.746Z,11.1
2023-01-12T04:04:05.060Z,10.3
2023-01-12T04:05:12.191Z,9.6
2023-01-12T04:06:19.117Z,9.5
2023-01-12T04:07:26.252Z,11.1
2023-01-12T04:08:32.908Z,10.3
2023-01-12T04:09:40.063Z,9.6
2023-01-12T04:10:47.364Z,9.9
2023-01-12T04:11:54.240Z,10
2023-01-12T04:13:06.627Z,9.4
2023-01-12T04:14:13.650Z,10.3
2023-01-12T04:15:20.779Z,8.8
2023-01-12T04:16:27.934Z,8.6
2023-01-12T04:17:34.951Z,10
2023-01-12T04:18:41.760Z,8.5
2023-01-12T04:19:48.820Z,11.2
2023-01-12T04:20:55.852Z,10.6
2023-01-12T04:22:02.976Z,9.9
2023-01-12T04:23:12.720Z,10.3
2023-01-12T04:24:19.814Z,10.6
2023-01-12T04:25:26.907Z,11.8
2023-01-12T04:26:34.163Z,10.2
2023-01-12T04:27:41.118Z,12
2023-01-12T04:28:53.581Z,12.9
2023-01-12T04:30:00.456Z,12.4
2023-01-12T04:31:07.575Z,13.6
2023-01-12T04:32:14.689Z,13.4
2023-01-12T04:33:21.815Z,12.4
2023-01-12T04:34:28.923Z,13.7
2023-01-12T04:35:36.231Z,12
2023-01-12T04:36:43.183Z,12.3
2023-01-12T04:37:50.237Z,12.2
2023-01-12T04:38:56.935Z,11.1
2023-01-12T04:40:04.041Z,12.1
2023-01-12T04:41:12.678Z,10.4
2023-01-12T04:42:19.816Z,11.1
2023-01-12T04:43:31.945Z,11.3
2023-01-12T04:44:38.720Z,10.5
2023-01-12T04:45:45.827Z,10.6
2023-01-12T04:46:52.883Z,11.3
2023-01-12T04:47:59.997Z,10.5
2023-01-12T04:49:09.698Z,10.8
2023-01-12T04:50:16.372Z,10.6
2023-01-12T04:51:23.643Z,12
2023-01-12T04:52:30.604Z,10.3
2023-01-12T04:53:37.690Z,11
2023-01-12T04:54:44.319Z,9.9
2023-01-12T04:55:51.457Z,10
2023-01-12T04:56:58.623Z,10.9
2023-01-12T04:58:05.782Z,10.2
2023-01-12T04:59:12.823Z,10.8
2023-01-12T05:00:19.888Z,10.5
2023-01-12T05:01:27.057Z,11.7
2023-01-12T05:02:33.658Z,10.4
2023-01-12T05:03:40.854Z,11
2023-01-12T05:04:47.938Z,10.5
2023-01-12T05:05:55.079Z,11.6
2023-01-12T05:07:02.195Z,12.8
2023-01-12T05:08:09.390Z,12
2023-01-12T05:09:21.495Z,12
2023-01-12T05:10:33.737Z,12.6
2023-01-12T05:11:40.433Z,10.8
2023-01-12T05:12:47.551Z,11.1
2023-01-12T05:13:54.681Z,11.2
2023-01-12T05:15:01.770Z,11.6
2023-01-12T05:16:09.633Z,11
2023-01-12T05:17:19.038Z,11.8
2023-01-12T05:18:26.191Z,10.9
2023-01-12T05:19:33.315Z,10
2023-01-12T05:20:40.420Z,12.6
2023-01-12T05:21:47.059Z,11.2
2023-01-12T05:22:53.787Z,11.6
2023-01-12T05:24:00.848Z,11.8
2023-01-12T05:25:07.938Z,11.5
2023-01-12T05:26:15.027Z,10.8
2023-01-12T05:27:22.203Z,10.3
2023-01-12T05:28:28.757Z,11.3
2023-01-12T05:29:35.858Z,11.5
2023-01-12T05:30:43.007Z,12
2023-01-12T05:31:50.187Z,12.4
2023-01-12T05:32:56.834Z,11.4
2023-01-12T05:34:04.057Z,12.8
2023-01-12T05:35:11.176Z,13.4
2023-01-12T05:36:18.302Z,10.7
2023-01-12T05:37:25.331Z,13.1
2023-01-12T05:38:32.483Z,11.4
2023-01-12T05:39:39.853Z,12.6
2023-01-12T05:40:46.861Z,13.8
2023-01-12T05:41:53.978Z,12.8
2023-01-12T05:43:06.114Z,12.9
2023-01-12T05:44:18.356Z,13.1
2023-01-12T05:45:25.445Z,13.1
2023-01-12T05:46:32.550Z,12.6
2023-01-12T05:47:39.603Z,14.3
2023-01-12T05:48:46.346Z,14.5
2023-01-12T05:49:53.466Z,13.5
2023-01-12T05:51:00.479Z,12.9
2023-01-12T05:52:07.726Z,14
2023-01-12T05:53:14.877Z,14.1
2023-01-12T05:54:21.909Z,11.9
2023-01-12T05:55:28.998Z,11.3
2023-01-12T05:56:36.135Z,12.7
2023-01-12T05:57:43.347Z,12.7
2023-01-12T05:58:50.533Z,14.1
2023-01-12T06:00:00.642Z,13
2023-01-12T06:01:07.782Z,11.9
2023-01-12T06:02:14.769Z,13.3
2023-01-12T06:03:21.917Z,12.6
2023-01-12T06:04:29.071Z,13.9
2023-01-12T06:05:36.162Z,16.2
2023-01-12T06:06:42.895Z,15.6
2023-01-12T06:07:49.983Z,15.6
2023-01-12T06:08:57.079Z,15.2
2023-01-12T06:10:04.174Z,15.9
2023-01-12T06:11:11.327Z,18.7
2023-01-12T06:12:23.462Z,17.3
2023-01-12T06:13:35.199Z,18
2023-01-12T06:14:47.474Z,15.8
2023-01-12T06:15:54.659Z,16.7
2023-01-12T06:17:06.915Z,15.9
2023-01-12T06:18:14.001Z,18.1
2023-01-12T06:19:21.126Z,16.3
2023-01-12T06:20:28.193Z,16.4
2023-01-12T06:21:35.410Z,15.2
2023-01-12T06:22:42.099Z,15.3
2023-01-12T06:23:50.312Z,14.9
2023-01-12T06:25:02.933Z,14
2023-01-12T06:26:16.474Z,13.7
2023-01-12T06:27:23.207Z,14.7
2023-01-12T06:28:30.486Z,14.4
2023-01-12T06:29:40.123Z,12.7
2023-01-12T06:30:47.307Z,15.2
2023-01-12T06:31:59.571Z,15.1
2023-01-12T06:33:06.612Z,14.5
2023-01-12T06:34:13.607Z,16.7
2023-01-12T06:35:20.640Z,16.6
2023-01-12T06:36:27.814Z,16.2
2023-01-12T06:37:34.500Z,16.8
2023-01-12T06:38:41.611Z,15
2023-01-12T06:39:48.690Z,15.4
2023-01-12T06:40:55.806Z,18.7
2023-01-12T06:42:05.671Z,16.4
2023-01-12T06:43:17.819Z,18.7
2023-01-12T06:44:24.775Z,17.5
2023-01-12T06:45:32.037Z,17.4
2023-01-12T06:46:39.257Z,16.9
2023-01-12T06:47:45.809Z,16.8
2023-01-12T06:48:52.933Z,18.1
2023-01-12T06:50:00.130Z,17.2
2023-01-12T06:51:07.194Z,19.1
2023-01-12T06:52:13.807Z,17.4
2023-01-12T06:53:21.076Z,17.8
2023-01-12T06:54:27.949Z,17.6
2023-01-12T06:55:35.088Z,17.6
2023-01-12T06:56:42.187Z,16.3
2023-01-12T06:57:48.887Z,16.3
2023-01-12T06:58:56.022Z,16
2023-01-12T07:00:03.267Z,18.3
2023-01-12T07:01:10.900Z,17.2
2023-01-12T07:02:18.198Z,16.9
2023-01-12T07:03:24.895Z,17.2
2023-01-12T07:04:31.647Z,18.7
2023-01-12T07:05:38.775Z,16.3
2023-01-12T07:06:45.851Z,17
2023-01-12T07:07:52.488Z,17.3
2023-01-12T07:09:02.087Z,15.1
2023-01-12T07:10:09.248Z,18.7
2023-01-12T07:11:16.372Z,15.9
2023-01-12T07:12:23.487Z,15.4
2023-01-12T07:13:30.639Z,14.5
2023-01-12T07:14:37.799Z,14.2
2023-01-12T07:15:44.832Z,14.6
2023-01-12T07:16:51.467Z,15.2
2023-01-12T07:17:58.644Z,15.1
2023-01-12T07:19:05.840Z,15.6
2023-01-12T07:20:12.939Z,14.7
2023-01-12T07:21:19.912Z,16.3
2023-01-12T07:22:26.574Z,17.2
2023-01-12T07:23:33.691Z,15.6
2023-01-12T07:24:40.500Z,16
2023-01-12T07:25:47.619Z,17.8
2023-01-12T07:26:54.669Z,17.1
2023-01-12T07:28:01.348Z,15.7
2023-01-12T07:29:08.425Z,15.4
2023-01-12T07:30:15.175Z,16.5
2023-01-12T07:31:22.131Z,14.7
2023-01-12T07:32:29.199Z,16.3
2023-01-12T07:33:36.384Z,14.1
2023-01-12T07:34:43.004Z,15.4
2023-01-12T07:35:50.099Z,15.1
2023-01-12T07:36:57.394Z,17.2
2023-01-12T07:38:04.079Z,16.2
2023-01-12T07:39:11.117Z,15.9
2023-01-12T07:40:18.309Z,15.4
2023-01-12T07:41:25.268Z,17.3
2023-01-12T07:42:37.552Z,15.8
2023-01-12T07:43:44.744Z,16.7
2023-01-12T07:44:51.827Z,15.1
2023-01-12T07:45:59.032Z,15.1
2023-01-12T07:47:06.131Z,17.7
2023-01-12T07:48:13.270Z,18.7
2023-01-12T07:49:20.223Z,15.2
2023-01-12T07:50:27.323Z,19
2023-01-12T07:51:34.093Z,20.6
2023-01-12T07:52:41.396Z,19.6
2023-01-12T07:53:48.391Z,16.6
2023-01-12T07:54:55.513Z,15.7
2023-01-12T07:56:02.676Z,17.7
2023-01-12T07:57:09.773Z,16.9
2023-01-12T07:58:16.571Z,16
2023-01-12T07:59:23.539Z,15.3
2023-01-12T08:00:30.545Z,18.5
2023-01-12T08:01:37.980Z,18.3
2023-01-12T08:02:44.889Z,17.5
2023-01-12T08:03:52.013Z,16.7
2023-01-12T08:04:58.750Z,15.3
2023-01-12T08:06:05.744Z,16
2023-01-12T08:07:12.873Z,15.7
2023-01-12T08:08:19.588Z,16.4
2023-01-12T08:09:26.556Z,14.8
2023-01-12T08:10:33.305Z,16.4
2023-01-12T08:11:40.389Z,14.1
2023-01-12T08:12:47.411Z,16.2
2023-01-12T08:13:54.573Z,15.3
2023-01-12T08:15:01.322Z,17.3
2023-01-12T08:16:08.385Z,17
2023-01-12T08:17:15.216Z,14.5
2023-01-12T08:18:22.032Z,15.1
2023-01-12T08:19:29.208Z,14.8
2023-01-12T08:20:35.964Z,15.4
2023-01-12T08:21:43.133Z,14.7
2023-01-12T08:22:50.118Z,15.9
2023-01-12T08:23:56.759Z,14.1
2023-01-12T08:25:04.017Z,15.2
2023-01-12T08:26:14.090Z,15.5
2023-01-12T08:27:23.672Z,14.7
2023-01-12T08:28:30.884Z,14.9
2023-01-12T08:29:37.563Z,15.7
2023-01-12T08:30:47.175Z,14.6
2023-01-12T08:31:54.388Z,14
2023-01-12T08:33:04.495Z,12.2
2023-01-12T08:34:11.773Z,14.5
2023-01-12T08:35:18.879Z,13.8
2023-01-12T08:36:25.842Z,12.8
2023-01-12T08:37:33.058Z,14.8
2023-01-12T08:38:40.188Z,13.9
2023-01-12T08:39:47.329Z,14.7
2023-01-12T08:40:54.620Z,14.7
2023-01-12T08:42:06.737Z,12.6
2023-01-12T08:43:13.606Z,13.2
2023-01-12T08:44:23.606Z,12.5
2023-01-12T08:45:30.625Z,14.3
2023-01-12T08:46:37.779Z,12.8
2023-01-12T08:47:50.927Z,14.1
2023-01-12T08:48:57.725Z,12
2023-01-12T08:50:04.734Z,16.2
2023-01-12T08:51:11.868Z,16.4
2023-01-12T08:52:19.004Z,14.3
2023-01-12T08:53:26.248Z,14.3
2023-01-12T08:54:33.301Z,12.7
2023-01-12T08:55:40.415Z,13.8
2023-01-12T08:56:47.635Z,13
2023-01-12T08:57:54.639Z,14.9
2023-01-12T08:59:01.730Z,15.2
2023-01-12T09:00:08.966Z,13
2023-01-12T09:01:16.350Z,14.6
2023-01-12T09:02:23.246Z,14.4
2023-01-12T09:03:30.334Z,14.7
2023-01-12T09:04:37.390Z,14.9
2023-01-12T09:05:44.156Z,13.6
2023-01-12T09:06:51.360Z,13.8
2023-01-12T09:07:58.414Z,14
2023-01-12T09:09:05.409Z,13.7
2023-01-12T09:10:12.221Z,12.3
2023-01-12T09:11:19.467Z,15.1
2023-01-12T09:12:26.222Z,13.6
2023-01-12T09:13:33.384Z,13.5
2023-01-12T09:14:40.614Z,14
2023-01-12T09:15:56.633Z,13.9
2023-01-12T09:16:54.897Z,15.3
2023-01-12T09:18:02.128Z,14.7
2023-01-12T09:19:09.307Z,15.9
2023-01-12T09:20:17.729Z,14.1
2023-01-12T09:21:24.341Z,13.1
2023-01-12T09:22:31.438Z,14.5
2023-01-12T09:23:38.637Z,14.9
2023-01-12T09:24:45.726Z,13.2
2023-01-12T09:25:52.491Z,13.2
2023-01-12T09:26:59.612Z,13.2
2023-01-12T09:28:06.620Z,13.1
2023-01-12T09:29:13.423Z,12.5
2023-01-12T09:30:20.458Z,14
2023-01-12T09:31:27.615Z,14.7
2023-01-12T09:32:37.077Z,13.1
2023-01-12T09:33:41.811Z,13.2
2023-01-12T09:34:48.556Z,14.8
2023-01-12T09:35:55.657Z,14.6
2023-01-12T09:37:08.358Z,13.7
2023-01-12T09:38:15.398Z,14.7
2023-01-12T09:39:27.555Z,13.6
2023-01-12T09:40:29.797Z,14.3
2023-01-12T09:41:36.843Z,13.6
2023-01-12T09:42:49.024Z,12.3
2023-01-12T09:44:01.338Z,13.2
2023-01-12T09:45:18.766Z,13.5
2023-01-12T09:46:30.843Z,12.9
2023-01-12T09:47:43.024Z,11.7
2023-01-12T09:48:57.952Z,13
2023-01-12T09:50:08.971Z,11.8
2023-01-12T09:51:12.141Z,13.6
2023-01-12T09:52:24.251Z,13.4
2023-01-12T09:53:31.443Z,10.8
2023-01-12T09:54:38.125Z,13.1
2023-01-12T09:55:45.283Z,13.4
2023-01-12T09:56:54.973Z,13.4
2023-01-12T09:58:05.148Z,13.4
2023-01-12T09:59:19.900Z,13.6
2023-01-12T10:00:32.383Z,12.5
2023-01-12T10:01:39.143Z,13.4
2023-01-12T10:02:45.980Z,13.1
2023-01-12T10:03:58.019Z,12.3
2023-01-12T10:05:05.354Z,11.8
2023-01-12T10:06:12.421Z,14.9
2023-01-12T10:07:19.534Z,11.5
2023-01-12T10:08:26.479Z,11.7
2023-01-12T10:09:38.738Z,11.3
2023-01-12T10:10:45.975Z,10.2
2023-01-12T10:12:00.777Z,10.2
2023-01-12T10:13:07.927Z,14.9
2023-01-12T10:14:14.916Z,12.5
2023-01-12T10:15:32.215Z,11.3
2023-01-12T10:16:44.531Z,10
2023-01-12T10:17:57.815Z,10.1
2023-01-12T10:19:08.905Z,10.3
2023-01-12T10:20:14.048Z,13.2
2023-01-12T10:21:26.143Z,13.4
2023-01-12T10:22:33.363Z,12.8
2023-01-12T10:23:48.604Z,11
2023-01-12T10:24:55.787Z,11.6
2023-01-12T10:26:02.847Z,12.5
2023-01-12T10:27:20.381Z,11.7
2023-01-12T10:28:27.272Z,11.7
2023-01-12T10:29:34.368Z,11.5
2023-01-12T10:30:41.065Z,10
2023-01-12T10:31:48.206Z,11
2023-01-12T10:32:55.287Z,10.5
2023-01-12T10:34:07.516Z,11.1
2023-01-12T10:35:14.384Z,10.6
2023-01-12T10:36:21.700Z,14.5
2023-01-12T10:37:28.794Z,13.5
2023-01-12T10:38:35.914Z,14.2
2023-01-12T10:39:43.095Z,12.2
2023-01-12T10:40:53.879Z,10.4
2023-01-12T10:42:11.192Z,13.2
2023-01-12T10:43:21.301Z,11.4
2023-01-12T10:44:28.415Z,12.5
2023-01-12T10:45:35.543Z,12.2
2023-01-12T10:46:42.696Z,11
2023-01-12T10:47:49.760Z,10.5
2023-01-12T10:48:56.595Z,12.7
2023-01-12T10:50:11.619Z,11.6
2023-01-12T10:51:23.774Z,12.3
2023-01-12T10:52:30.866Z,11.2
2023-01-12T10:53:37.517Z,10.3
2023-01-12T10:54:47.248Z,10.7
2023-01-12T10:55:54.387Z,11
2023-01-12T10:57:01.689Z,11.8
2023-01-12T10:58:13.750Z,11.7
2023-01-12T10:59:23.315Z,11.4
2023-01-12T11:00:33.055Z,11.5
2023-01-12T11:01:40.334Z,10.5
2023-01-12T11:02:52.417Z,12
2023-01-12T11:03:59.642Z,11
2023-01-12T11:05:06.654Z,11.8
2023-01-12T11:06:23.885Z,11
2023-01-12T11:07:31.022Z,13.1
2023-01-12T11:08:38.200Z,12.5
2023-01-12T11:09:45.251Z,14.7
2023-01-12T11:10:52.458Z,25
2023-01-12T11:11:59.567Z,17.9
2023-01-12T11:13:17.068Z,22.9
2023-01-12T11:14:34.030Z,21.4
2023-01-12T11:15:41.270Z,15.7
2023-01-12T11:16:48.495Z,11.8
2023-01-12T11:17:55.569Z,13.3
2023-01-12T11:19:12.823Z,11.9
2023-01-12T11:20:19.930Z,12.5
2023-01-12T11:21:30.011Z,14.5
2023-01-12T11:22:37.109Z,12
2023-01-12T11:23:44.243Z,9.8
2023-01-12T11:24:56.475Z,12.4
2023-01-12T11:26:13.896Z,11.1
2023-01-12T11:27:20.897Z,11.9
2023-01-12T11:28:33.025Z,9.6
2023-01-12T11:29:42.727Z,12.3
2023-01-12T11:30:54.953Z,13.9
2023-01-12T11:32:07.051Z,12.2
2023-01-12T11:33:19.310Z,12.8
2023-01-12T11:34:36.701Z,12.4
2023-01-12T11:35:43.585Z,10.4
2023-01-12T11:37:00.866Z,9.3
2023-01-12T11:38:08.012Z,10.1
2023-01-12T11:39:14.724Z,9.6
2023-01-12T11:40:27.372Z,8.2
2023-01-12T11:41:37.112Z,8.8
2023-01-12T11:42:44.165Z,10.4
2023-01-12T11:43:56.404Z,8.8
2023-01-12T11:45:08.627Z,9.1
2023-01-12T11:46:25.926Z,9.1
2023-01-12T11:47:41.955Z,9.7
2023-01-12T11:48:56.418Z,8.3
2023-01-12T11:50:13.711Z,9.6
2023-01-12T11:51:31.037Z,10.2
2023-01-12T11:52:38.102Z,9.2
2023-01-12T11:53:45.203Z,9.7
2023-01-12T11:54:51.940Z,9.7
2023-01-12T11:55:59.123Z,10.1
2023-01-12T11:57:14.421Z,12.1
2023-01-12T11:58:26.437Z,10.3
2023-01-12T11:59:40.853Z,10.9
2023-01-12T12:00:53.466Z,10
2023-01-12T12:02:05.742Z,9.7
2023-01-12T12:03:22.937Z,11.7
2023-01-12T12:04:40.202Z,10.5
2023-01-12T12:05:52.533Z,13
2023-01-12T12:06:59.586Z,12
2023-01-12T12:08:09.842Z,13.8
2023-01-12T12:09:19.498Z,12.5
2023-01-12T12:10:29.093Z,9.7
2023-01-12T12:11:41.022Z,10.6
2023-01-12T12:12:45.942Z,12.3
2023-01-12T12:13:58.241Z,11.4
2023-01-12T12:15:15.526Z,11.3
2023-01-12T12:16:32.738Z,9.3
2023-01-12T12:17:45.013Z,11
2023-01-12T12:18:51.643Z,10.4
2023-01-12T12:20:06.395Z,9.3
2023-01-12T12:21:21.698Z,8.8
2023-01-12T12:22:33.890Z,9.4
2023-01-12T12:23:51.219Z,10.6
2023-01-12T12:25:08.431Z,9.2
2023-01-12T12:26:20.191Z,9.1
2023-01-12T12:27:27.287Z,10.1
2023-01-12T12:28:39.656Z,8.8
2023-01-12T12:29:51.681Z,11.1
2023-01-12T12:31:09.104Z,10.5
2023-01-12T12:32:26.282Z,8.5
2023-01-12T12:33:41.031Z,11.9
2023-01-12T12:34:58.421Z,8.6
2023-01-12T12:36:13.649Z,11.1
2023-01-12T12:37:25.767Z,10.8
2023-01-12T12:38:40.498Z,9.2
2023-01-12T12:39:55.282Z,9.3
2023-01-12T12:41:07.476Z,9.2
2023-01-12T12:42:20.037Z,10.2
2023-01-12T12:43:36.986Z,7.6
2023-01-12T12:44:49.129Z,9.4
2023-01-12T12:46:09.058Z,9.2
2023-01-12T12:47:24.323Z,9.1
2023-01-12T12:48:36.511Z,10.2
2023-01-12T12:49:51.206Z,8.1
2023-01-12T12:50:58.391Z,9.7
2023-01-12T12:52:08.545Z,9.4
2023-01-12T12:53:15.699Z,8.4
2023-01-12T12:54:27.912Z,8.9
2023-01-12T12:55:34.972Z,9.1
2023-01-12T12:56:41.676Z,10.5
2023-01-12T12:57:48.731Z,8.4
2023-01-12T12:59:01.108Z,9.6
2023-01-12T13:00:08.215Z,8.9
2023-01-12T13:01:15.368Z,10.4
2023-01-12T13:02:25.633Z,10.5
2023-01-12T13:03:42.751Z,10
2023-01-12T13:04:57.969Z,10.7
2023-01-12T13:06:05.172Z,9.3
2023-01-12T13:07:20.495Z,11.4
2023-01-12T13:08:27.556Z,9.3
2023-01-12T13:09:34.659Z,11.1
2023-01-12T13:10:41.790Z,8.9
2023-01-12T13:11:54.063Z,11.6
2023-01-12T13:13:01.124Z,10
2023-01-12T13:14:08.288Z,12.5
2023-01-12T13:15:25.489Z,8.7
2023-01-12T13:16:35.236Z,9.9
2023-01-12T13:17:42.317Z,9.6
2023-01-12T13:18:49.052Z,9.2
2023-01-12T13:20:00.763Z,9.6
2023-01-12T13:21:03.341Z,9.5
2023-01-12T13:22:10.447Z,9.7
2023-01-12T13:23:27.691Z,8.3
2023-01-12T13:24:42.408Z,9
2023-01-12T13:25:49.554Z,10.8
2023-01-12T13:26:56.684Z,10.3
2023-01-12T13:28:03.838Z,12
2023-01-12T13:29:11.055Z,8.9
2023-01-12T13:30:26.272Z,10.3
2023-01-12T13:31:33.284Z,9
2023-01-12T13:32:39.932Z,6.8
2023-01-12T13:33:47.122Z,9.9
2023-01-12T13:34:54.262Z,9.9
2023-01-12T13:36:01.359Z,8.5
2023-01-12T13:37:08.475Z,9.7
2023-01-12T13:38:25.881Z,10.5
2023-01-12T13:39:38.038Z,9.6
2023-01-12T13:40:55.780Z,11.3
2023-01-12T13:41:52.250Z,10
2023-01-12T13:43:04.471Z,9.5
2023-01-12T13:44:22.711Z,9
2023-01-12T13:45:32.419Z,9.2
2023-01-12T13:46:39.637Z,10.9
2023-01-12T13:47:49.201Z,8.2
2023-01-12T13:48:56.459Z,9.1
2023-01-12T13:50:03.578Z,8.9
2023-01-12T13:51:10.839Z,9.4
2023-01-12T13:52:21.229Z,9
2023-01-12T13:53:30.989Z,9.3
2023-01-12T13:54:38.215Z,8.1
2023-01-12T13:55:45.271Z,8.9
2023-01-12T13:57:00.649Z,8.7
2023-01-12T13:58:07.809Z,8.2
2023-01-12T13:59:20.006Z,9.4
2023-01-12T14:00:27.069Z,7.3
2023-01-12T14:01:34.322Z,7.9
2023-01-12T14:02:41.398Z,10
2023-01-12T14:03:48.359Z,8.7
2023-01-12T14:05:00.633Z,10
2023-01-12T14:06:15.539Z,9.5
2023-01-12T14:07:32.721Z,9.8
2023-01-12T14:08:51.461Z,8.6
2023-01-12T14:10:05.302Z,8.7
2023-01-12T14:11:20.194Z,10.2
2023-01-12T14:12:32.296Z,7.7
2023-01-12T14:13:44.545Z,9.1
2023-01-12T14:14:56.735Z,8.4
2023-01-12T14:16:19.543Z,7.5
2023-01-12T14:17:31.470Z,8.8
2023-01-12T14:18:43.646Z,8.2
2023-01-12T14:19:50.729Z,9.7
2023-01-12T14:20:57.387Z,8.8
2023-01-12T14:22:04.598Z,8.7
2023-01-12T14:23:14.178Z,10.3
2023-01-12T14:24:26.350Z,9.9
2023-01-12T14:25:33.555Z,9.6
2023-01-12T14:26:40.598Z,7.9
2023-01-12T14:27:47.294Z,9.4
2023-01-12T14:28:57.510Z,10.6
2023-01-12T14:30:04.542Z,9.6
2023-01-12T14:31:12.256Z,10.1
2023-01-12T14:32:24.457Z,8.4
2023-01-12T14:33:31.474Z,9.8
2023-01-12T14:34:38.147Z,9.6
2023-01-12T14:35:45.259Z,11.1
2023-01-12T14:36:52.388Z,11.3
2023-01-12T14:37:59.241Z,12.1
2023-01-12T14:39:06.139Z,12.5
2023-01-12T14:40:13.309Z,11.3
2023-01-12T14:41:23.045Z,11.2
2023-01-12T14:42:35.153Z,11.9
2023-01-12T14:43:47.415Z,14.8
2023-01-12T14:44:59.629Z,10
2023-01-12T14:46:22.088Z,11.8
2023-01-12T14:47:33.895Z,9.7
2023-01-12T14:48:39.351Z,10.6
2023-01-12T14:49:46.350Z,11.8
2023-01-12T14:50:53.450Z,11.1
2023-01-12T14:52:10.834Z,10.5
2023-01-12T14:53:28.613Z,13.6
2023-01-12T14:54:38.229Z,13.4
2023-01-12T14:55:45.345Z,15.2
2023-01-12T14:56:52.517Z,11.3
2023-01-12T14:58:04.762Z,12.4
2023-01-12T14:59:11.889Z,12.3
2023-01-12T15:00:19.141Z,14.9
2023-01-12T15:01:26.474Z,15
2023-01-12T15:02:33.261Z,15.9
2023-01-12T15:03:43.938Z,16.1
2023-01-12T15:04:46.995Z,16.9
2023-01-12T15:05:59.299Z,17.5
2023-01-12T15:07:06.305Z,13.6
2023-01-12T15:08:13.467Z,17.7
2023-01-12T15:09:25.665Z,18.2
2023-01-12T15:10:32.637Z,14
2023-01-12T15:11:39.826Z,15.1
2023-01-12T15:12:46.620Z,14.7
2023-01-12T15:13:56.797Z,16
2023-01-12T15:15:03.880Z,18.5
2023-01-12T15:16:16.439Z,15.2
2023-01-12T15:17:28.894Z,15.3
2023-01-12T15:18:40.933Z,15.2
2023-01-12T15:19:53.181Z,15
2023-01-12T15:21:05.492Z,18.3
2023-01-12T15:22:17.755Z,14.9
2023-01-12T15:23:29.821Z,15.6
2023-01-12T15:24:42.079Z,14.3
2023-01-12T15:25:54.446Z,13.5
2023-01-12T15:27:06.250Z,15.2
2023-01-12T15:28:08.587Z,13.6
2023-01-12T15:29:15.677Z,13